My Meet Scores
Mia Kaddatz, The Gymnastics Shop - MyMeetScores.com
Top100 | Top Teams | Upcoming Meets | Completed Meets | Latest | Add Scores | Help| Support | Bookmark and Share

Mia Kaddatz, The Gymnastics Shop
Personal Bests
LevelVault BarsBeamFloorAA
39.2508.725 8.9508.95035.625
48.7509.425 9.0758.90035.850
59.0008.925 8.8009.00035.625
Meet Scores
Date Meet Team Session Level Division Vault Bars Beam Floor AA
2019-03-22 Illinois Gymnastics State Championships The Gymnastics Shop 3 5 SR C 9.000 21T 8.925 13 8.800 12T 8.900 19T 35.625 19
2019-02-23 Kinetic Classic 2019 The Gymnastics Shop 1 5 Older 8.350 17 8.650 11 8.475 13 7.250 20 32.725 17
2019-02-08 IGI Chicago Style 2019 The Gymnastics Shop 48 5 632 LaSalle L5 C 8.575 18 8.750 8 8.550 9 8.375 14 34.250 11
2019-01-18 2019 Bravo Classic The Gymnastics Shop 2A 5 Sr 8.225 24T 8.550 20T 8.675 20 8.150 27 33.600 23
2019-01-11 St Jude Benefit Meet The Gymnastics Shop 9A 5 Sr B 8.550 16 8.750 6 8.025 13 9.000 8T 34.325 9
2018-12-07 St. Nick Invite 2018 The Gymnastics Shop 1 5 SrB 8.450 18 8.550 8T 8.600 8 8.425 13 34.025 10
2018-11-30 Ultimate Wish Classic The Gymnastics Shop 6 5 SR A 8.500 17 8.000 13 7.850 12T 7.950 16 32.300 13
2018-03-08 Level 4 & 5 State The Gymnastics Shop All 4 Sr B 8.675 21 9.425 2 8.900 22T 8.850 19 35.850 15
2018-02-23 Kinetic Classic The Gymnastics Shop 6 4 Older 8.450 57T 9.350 16T 8.825 41 8.900 62 35.525 45
2018-02-08 Nashville Nights 2018 The Gymnastics Shop B03 4 SrA 8.100 8T 9.250 1 8.900 4 8.750 9 35.000 5
2018-01-26 King Arthur Invitational The Gymnastics Shop 2 4 Sr B 8.250 12 9.350 1 8.925 1 8.800 7T 35.325 2
2018-01-12 Legacy Elite Winter Classic The Gymnastics Shop 3 4 JrB 8.600 9T 9.150 2 9.050 3 8.550 10 35.350 5
2017-12-08 St. Nick Invite The Gymnastics Shop 1 4 SrA 8.450 7T 9.175 4 9.050 9T 8.750 12 35.425 7
2017-12-01 Ultimate Wish Classic The Gymnastics Shop 10 4 Sr B 8.750 6T 9.400 2 8.550 6T 8.750 9 35.450 4
2017-10-27 M&M's Pixie Dust Invitational The Gymnastics Shop 5 4 11 yrs. 7.700 16 9.275 2 8.600 14 8.650 12 34.225 6
2017-03-10 2017 Illinois Level 4 State Championships The Gymnastics Shop 4 4 Youth E 8.250 26T 8.800 17 9.075 19 8.375 28 34.500 24
2017-02-17 Big Classic The Gymnastics Shop B 4 Child B 8.450 32T 8.675 32 8.550 44 8.250 39 33.925 37
2017-02-10 IGI Chicago Style Gymnastics Meet The Gymnastics Shop 621L 4 JrC 8.250 19 8.750 8 8.400 18 8.350 18 33.750 15
2017-02-03 2017 Classic Spectacular The Gymnastics Shop JO6 4 Senior 7.650 15T 8.375 8T 8.950 11T 7.700 17 32.675 14
2017-01-13 Legacy Elite Winter Classic The Gymnastics Shop B4 4 ChB 8.200 10 8.825 12 8.800 10 8.450 13 34.275 11
2016-12-15 2016 Hawaiian Pineapple Sanction The Gymnastics Shop 1A 4 Age 10 8.300 10 8.200 11T 8.675 8T 8.300 12T 33.475 10
2016-12-02 Ultimate Wish Classic The Gymnastics Shop 13 4 Sr A 8.275 10T 8.350 7T 8.650 14 8.150 19 33.425 13
2016-11-11 2016 Illinois Judges Cup The Gymnastics Shop R6 4 10 Year Ol 8.350 4 8.700 6 7.650 12 8.400 8T 33.100 7
2016-03-04 2016 Illinois Level 3 State Championships Lakeshore Academy of Mt. Prospect 3 Junior-C 9.250 19 8.725 19 8.950 4 8.700 22 35.625 15
2015-12-04 2015 Ultimate Wish Classic Lakeshore Academy of Mt. Prospect 10B 3 All 8.600 55 8.575 57 8.850 17 8.950 41 34.975 35
Get your scores on
a t-shirt, pin, or hoodie

Order by December 12

www.lazysuits.com